Time;durP1;ratioP1;P1;durP2;ratioP2;P2;SDS_P1;SDS_P2;PMS_P1;PMS_P2;Temp;Humidity;BMP_temperature;BMP_pressure;BME280_temperature;BME280_humidity;BME280_pressure;Samples;Min_cycle;Max_cycle;Signal;HPM_P1;HPM_P2
2023/08/29 00:02:22;;;;;;;2.38;2.28;;;;;;;;;;5029953;28;20435;-69
2023/08/29 00:04:50;;;;;;;2.63;2.42;;;;;;;;;;5038790;28;20512;-69
2023/08/29 00:07:17;;;;;;;3.83;2.60;;;;;;;;;;5027743;28;20431;-69
2023/08/29 00:09:44;;;;;;;3.80;2.50;;;;;;;;;;5026269;28;20427;-69
2023/08/29 00:12:11;;;;;;;2.92;2.75;;;;;;;;;;5029105;28;20538;-69
2023/08/29 00:14:39;;;;;;;3.30;3.10;;;;;;;;;;5024586;28;20427;-68
2023/08/29 00:17:09;;;;;;;4.78;3.65;;;;;;;;;;5029243;28;20436;-69
2023/08/29 00:19:36;;;;;;;4.57;2.80;;;;;;;;;;5038374;28;21036;-70
2023/08/29 00:22:03;;;;;;;2.95;2.70;;;;;;;;;;5019769;28;20439;-70
2023/08/29 00:24:31;;;;;;;3.35;2.70;;;;;;;;;;5026469;28;20518;-69
2023/08/29 00:26:58;;;;;;;3.50;2.45;;;;;;;;;;5027892;28;20463;-70
2023/08/29 00:29:26;;;;;;;2.47;2.30;;;;;;;;;;5027733;28;20443;-70
2023/08/29 00:31:56;;;;;;;2.40;2.30;;;;;;;;;;5042482;28;20838;-69
2023/08/29 00:34:23;;;;;;;2.65;2.50;;;;;;;;;;5045433;28;20524;-69
2023/08/29 00:36:53;;;;;;;3.60;2.50;;;;;;;;;;5030054;28;20442;-69
2023/08/29 00:39:20;;;;;;;3.40;2.53;;;;;;;;;;5030121;28;20513;-69
2023/08/29 00:41:49;;;;;;;3.60;2.50;;;;;;;;;;5031264;28;20440;-70
2023/08/29 00:44:16;;;;;;;3.30;2.45;;;;;;;;;;5026237;28;20430;-70
2023/08/29 00:46:45;;;;;;;2.22;2.13;;;;;;;;;;5030854;28;20433;-70
2023/08/29 00:49:15;;;;;;;3.37;2.77;;;;;;;;;;5032287;28;20435;-70
2023/08/29 00:51:43;;;;;;;6.00;2.58;;;;;;;;;;5025964;28;20518;-70
2023/08/29 00:54:10;;;;;;;3.60;2.40;;;;;;;;;;5015792;28;20434;-68
2023/08/29 00:56:37;;;;;;;2.70;2.33;;;;;;;;;;5026704;28;20437;-69
2023/08/29 00:59:07;;;;;;;2.65;2.45;;;;;;;;;;5006438;28;20512;-69
2023/08/29 01:01:35;;;;;;;2.35;2.20;;;;;;;;;;5026889;28;20437;-68
2023/08/29 01:04:03;;;;;;;2.78;2.58;;;;;;;;;;5030640;28;21320;-68
2023/08/29 01:06:31;;;;;;;2.83;2.63;;;;;;;;;;5030650;28;20801;-69
2023/08/29 01:09:02;;;;;;;3.05;2.50;;;;;;;;;;5014655;28;21050;-68
2023/08/29 01:11:33;;;;;;;3.08;2.85;;;;;;;;;;5031206;28;20427;-68
2023/08/29 01:14:08;;;;;;;2.45;2.25;;;;;;;;;;5027485;28;20529;-69
2023/08/29 01:16:43;;;;;;;2.38;2.20;;;;;;;;;;5026989;28;20487;-69
2023/08/29 01:19:14;;;;;;;3.22;2.55;;;;;;;;;;5026228;28;21025;-69
2023/08/29 01:21:53;;;;;;;2.10;2.00;;;;;;;;;;5025163;28;20434;-69
2023/08/29 01:24:43;;;;;;;2.85;2.55;;;;;;;;;;5028320;28;20503;-69
2023/08/29 01:27:11;;;;;;;3.42;2.28;;;;;;;;;;5028986;28;20427;-69
2023/08/29 01:29:40;;;;;;;2.35;2.13;;;;;;;;;;5026445;28;20427;-69
2023/08/29 01:32:07;;;;;;;2.38;2.28;;;;;;;;;;5030657;28;20647;-69
2023/08/29 01:34:34;;;;;;;3.37;2.33;;;;;;;;;;5026535;28;20434;-69
2023/08/29 01:37:01;;;;;;;2.70;2.30;;;;;;;;;;5030898;28;20729;-69
2023/08/29 01:39:29;;;;;;;2.70;2.27;;;;;;;;;;5027653;28;20453;-68
2023/08/29 01:41:56;;;;;;;2.45;2.25;;;;;;;;;;5027311;28;20980;-68
2023/08/29 01:44:23;;;;;;;2.50;2.30;;;;;;;;;;5024569;28;20427;-68
2023/08/29 01:46:50;;;;;;;2.53;2.30;;;;;;;;;;5041501;28;20858;-68
2023/08/29 01:49:20;;;;;;;2.60;2.40;;;;;;;;;;5024748;28;20431;-68
2023/08/29 01:51:48;;;;;;;2.60;2.40;;;;;;;;;;5027105;28;20785;-69
2023/08/29 01:54:18;;;;;;;2.30;2.10;;;;;;;;;;5041736;28;20502;-68
2023/08/29 01:56:46;;;;;;;2.70;2.50;;;;;;;;;;5029034;28;20489;-68
2023/08/29 01:59:15;;;;;;;2.80;2.60;;;;;;;;;;5030930;28;20451;-69
2023/08/29 02:01:42;;;;;;;2.43;2.30;;;;;;;;;;5024662;28;20434;-69
2023/08/29 02:04:09;;;;;;;3.30;2.60;;;;;;;;;;5024389;28;20439;-69
2023/08/29 02:06:36;;;;;;;2.60;2.40;;;;;;;;;;5025046;28;20435;-69
2023/08/29 02:09:04;;;;;;;2.57;2.33;;;;;;;;;;5031119;28;20429;-69
2023/08/29 02:11:31;;;;;;;4.85;2.50;;;;;;;;;;5048576;28;20471;-68
2023/08/29 02:13:58;;;;;;;2.40;2.30;;;;;;;;;;5026357;28;20509;-68
2023/08/29 02:16:25;;;;;;;3.10;2.40;;;;;;;;;;5025516;28;20840;-68
2023/08/29 02:18:53;;;;;;;3.00;2.67;;;;;;;;;;5026336;28;20435;-69
2023/08/29 02:21:20;;;;;;;2.65;2.55;;;;;;;;;;5028447;28;20466;-68
2023/08/29 02:23:47;;;;;;;3.83;2.60;;;;;;;;;;5025762;28;20426;-68
2023/08/29 02:26:14;;;;;;;2.58;2.40;;;;;;;;;;5027243;28;20426;-68
2023/08/29 02:28:41;;;;;;;3.30;2.50;;;;;;;;;;5031388;28;20426;-68
2023/08/29 02:31:10;;;;;;;3.55;3.28;;;;;;;;;;5022485;28;21038;-69
2023/08/29 02:33:38;;;;;;;3.28;2.97;;;;;;;;;;5030841;28;20927;-69
2023/08/29 02:36:08;;;;;;;4.80;2.97;;;;;;;;;;5026504;28;20430;-69
2023/08/29 02:38:35;;;;;;;3.72;2.95;;;;;;;;;;5027260;28;20443;-69
2023/08/29 02:41:02;;;;;;;2.80;2.60;;;;;;;;;;5023833;28;20466;-69
2023/08/29 02:43:30;;;;;;;3.10;2.92;;;;;;;;;;5025314;28;20484;-69
2023/08/29 02:45:57;;;;;;;2.90;2.60;;;;;;;;;;5028682;28;20449;-69
2023/08/29 02:48:27;;;;;;;3.10;2.85;;;;;;;;;;5024745;28;20515;-69
2023/08/29 02:50:55;;;;;;;3.50;3.30;;;;;;;;;;5036326;28;20428;-69
2023/08/29 02:53:25;;;;;;;4.30;3.88;;;;;;;;;;5017704;28;20498;-69
2023/08/29 02:55:53;;;;;;;4.13;3.60;;;;;;;;;;5030501;28;20425;-69
2023/08/29 02:58:23;;;;;;;5.32;3.45;;;;;;;;;;5026766;28;20561;-69
2023/08/29 03:00:57;;;;;;;3.03;2.83;;;;;;;;;;5047317;28;20531;-69
2023/08/29 03:03:27;;;;;;;3.20;3.00;;;;;;;;;;5044193;28;20431;-69
2023/08/29 03:05:58;;;;;;;3.22;3.03;;;;;;;;;;5026817;28;20462;-69
2023/08/29 03:08:28;;;;;;;3.80;3.47;;;;;;;;;;5024796;28;20511;-69
2023/08/29 03:10:55;;;;;;;3.55;3.17;;;;;;;;;;5031367;28;20428;-68
2023/08/29 03:13:23;;;;;;;3.20;2.90;;;;;;;;;;5033559;28;20462;-69
2023/08/29 03:15:50;;;;;;;3.20;3.03;;;;;;;;;;5031122;28;20433;-69
2023/08/29 03:18:17;;;;;;;5.45;3.05;;;;;;;;;;5027999;28;20435;-69
2023/08/29 03:20:44;;;;;;;3.30;3.10;;;;;;;;;;5030074;28;20830;-69
2023/08/29 03:23:15;;;;;;;5.93;3.53;;;;;;;;;;5045001;28;20470;-69
2023/08/29 03:25:42;;;;;;;4.47;3.30;;;;;;;;;;5026759;28;20549;-69
2023/08/29 03:28:09;;;;;;;3.17;2.97;;;;;;;;;;5031877;28;20431;-69
2023/08/29 03:30:36;;;;;;;3.40;3.20;;;;;;;;;;5023877;28;20493;-69
2023/08/29 03:33:03;;;;;;;5.28;3.22;;;;;;;;;;5020427;28;20503;-69
2023/08/29 03:35:31;;;;;;;5.20;3.72;;;;;;;;;;5020859;28;20426;-69
2023/08/29 03:37:59;;;;;;;3.60;3.30;;;;;;;;;;5023139;28;20437;-69
2023/08/29 03:40:26;;;;;;;4.18;3.42;;;;;;;;;;5048979;28;20439;-69
2023/08/29 03:42:53;;;;;;;3.72;3.47;;;;;;;;;;5021228;28;20469;-69
2023/08/29 03:45:20;;;;;;;3.60;3.30;;;;;;;;;;5024581;28;20911;-69
2023/08/29 03:47:50;;;;;;;4.10;3.45;;;;;;;;;;5029746;28;20438;-69
2023/08/29 03:50:19;;;;;;;3.70;3.40;;;;;;;;;;5030965;28;20435;-69
2023/08/29 03:52:48;;;;;;;3.88;3.50;;;;;;;;;;5034355;28;20899;-69
2023/08/29 03:55:15;;;;;;;3.47;3.17;;;;;;;;;;5029435;28;20438;-69
2023/08/29 03:57:42;;;;;;;4.13;3.53;;;;;;;;;;5035492;28;20435;-69
2023/08/29 04:00:10;;;;;;;3.88;3.58;;;;;;;;;;5028552;28;21175;-69
2023/08/29 04:02:39;;;;;;;3.50;3.30;;;;;;;;;;5027350;28;20439;-69
2023/08/29 04:05:14;;;;;;;4.23;3.70;;;;;;;;;;5030796;28;20470;-68
2023/08/29 04:07:44;;;;;;;4.17;3.50;;;;;;;;;;5042454;28;20908;-69
2023/08/29 04:10:12;;;;;;;4.05;3.65;;;;;;;;;;5026703;28;20493;-68
2023/08/29 04:12:39;;;;;;;3.95;3.53;;;;;;;;;;5024254;28;20506;-70
2023/08/29 04:15:07;;;;;;;5.45;3.50;;;;;;;;;;5030548;28;20981;-69
2023/08/29 04:17:34;;;;;;;5.03;3.65;;;;;;;;;;5032206;28;20431;-70
2023/08/29 04:20:04;;;;;;;5.65;3.63;;;;;;;;;;4989725;28;20442;-70
2023/08/29 04:22:33;;;;;;;5.30;4.07;;;;;;;;;;5029211;28;20437;-70
2023/08/29 04:25:00;;;;;;;3.40;3.20;;;;;;;;;;5021322;28;20433;-70
2023/08/29 04:27:27;;;;;;;4.88;3.58;;;;;;;;;;5041789;28;20866;-69
2023/08/29 04:29:54;;;;;;;3.90;3.50;;;;;;;;;;5043152;28;20521;-69
2023/08/29 04:32:21;;;;;;;3.70;3.40;;;;;;;;;;5026635;28;20451;-70
2023/08/29 04:34:48;;;;;;;5.10;3.50;;;;;;;;;;5028570;28;20521;-69
2023/08/29 04:37:17;;;;;;;4.70;3.30;;;;;;;;;;5028164;28;21920;-70
2023/08/29 04:39:44;;;;;;;4.13;3.35;;;;;;;;;;5028268;28;21178;-69
2023/08/29 04:42:14;;;;;;;3.50;3.20;;;;;;;;;;5000377;28;20507;-69
2023/08/29 04:44:41;;;;;;;4.50;2.90;;;;;;;;;;5026825;28;20465;-70
2023/08/29 04:47:12;;;;;;;4.38;3.25;;;;;;;;;;5029113;28;20439;-69
2023/08/29 04:49:39;;;;;;;4.03;3.28;;;;;;;;;;5029982;28;20429;-69
2023/08/29 04:52:09;;;;;;;4.20;3.50;;;;;;;;;;5029798;28;20515;-70
2023/08/29 04:54:36;;;;;;;3.33;3.05;;;;;;;;;;5019945;28;20929;-69
2023/08/29 04:57:04;;;;;;;3.47;3.17;;;;;;;;;;5021024;28;20435;-69
2023/08/29 04:59:34;;;;;;;3.05;2.85;;;;;;;;;;5024963;28;20439;-69
2023/08/29 05:02:01;;;;;;;3.70;3.35;;;;;;;;;;5024338;28;20432;-70
2023/08/29 05:04:28;;;;;;;3.60;3.30;;;;;;;;;;5023572;28;20435;-69
2023/08/29 05:06:58;;;;;;;4.70;4.00;;;;;;;;;;5026693;28;20446;-69
2023/08/29 05:09:25;;;;;;;5.22;3.70;;;;;;;;;;5029694;28;20431;-69
2023/08/29 05:11:52;;;;;;;4.70;3.83;;;;;;;;;;5040716;28;20790;-69
2023/08/29 05:14:20;;;;;;;3.65;3.38;;;;;;;;;;5024240;28;21182;-69
2023/08/29 05:16:47;;;;;;;3.22;2.92;;;;;;;;;;5023484;28;20509;-69
2023/08/29 05:19:14;;;;;;;6.68;3.22;;;;;;;;;;5024270;28;20517;-69
2023/08/29 05:21:41;;;;;;;3.55;3.25;;;;;;;;;;5023425;28;20601;-69
2023/08/29 05:24:08;;;;;;;3.80;3.15;;;;;;;;;;5023751;28;20495;-69
2023/08/29 05:26:36;;;;;;;3.40;3.13;;;;;;;;;;5028015;28;20430;-69
2023/08/29 05:29:03;;;;;;;3.33;2.92;;;;;;;;;;5025472;28;20438;-69
2023/08/29 05:31:30;;;;;;;4.18;2.90;;;;;;;;;;5030006;28;20488;-68
2023/08/29 05:33:57;;;;;;;3.60;2.85;;;;;;;;;;5021381;28;20537;-69
2023/08/29 05:36:24;;;;;;;2.88;2.50;;;;;;;;;;5037842;28;20930;-69
2023/08/29 05:38:52;;;;;;;2.85;2.65;;;;;;;;;;5024539;28;20957;-68
2023/08/29 05:41:20;;;;;;;4.72;2.65;;;;;;;;;;5023907;28;20439;-68
2023/08/29 05:43:47;;;;;;;3.08;2.78;;;;;;;;;;5024712;28;20439;-69
2023/08/29 05:46:14;;;;;;;3.83;2.97;;;;;;;;;;5027299;28;20493;-68
2023/08/29 05:48:42;;;;;;;2.53;2.42;;;;;;;;;;5023967;28;20463;-68
2023/08/29 05:51:09;;;;;;;3.60;2.65;;;;;;;;;;5018260;28;20509;-68
2023/08/29 05:53:36;;;;;;;2.53;2.35;;;;;;;;;;5030539;28;20513;-69
2023/08/29 05:56:06;;;;;;;4.32;2.70;;;;;;;;;;5023749;28;20431;-68
2023/08/29 05:58:33;;;;;;;2.90;2.70;;;;;;;;;;5025988;28;20525;-69
2023/08/29 06:01:00;;;;;;;4.07;2.30;;;;;;;;;;5024772;28;20492;-68
2023/08/29 06:03:31;;;;;;;2.40;2.30;;;;;;;;;;5025477;28;20782;-68
2023/08/29 06:06:03;;;;;;;2.78;2.33;;;;;;;;;;5039342;28;20921;-68
2023/08/29 06:08:33;;;;;;;2.22;2.10;;;;;;;;;;5023027;28;21266;-68
2023/08/29 06:11:00;;;;;;;2.60;2.40;;;;;;;;;;5027972;28;20454;-68
2023/08/29 06:13:28;;;;;;;2.30;2.20;;;;;;;;;;5027706;28;20427;-67
2023/08/29 06:15:55;;;;;;;2.35;2.20;;;;;;;;;;5023362;28;21138;-67
2023/08/29 06:18:22;;;;;;;3.13;2.10;;;;;;;;;;5023848;28;20431;-67
2023/08/29 06:20:55;;;;;;;3.80;2.15;;;;;;;;;;5023399;28;20522;-67
2023/08/29 06:23:22;;;;;;;2.92;2.28;;;;;;;;;;5022363;28;20434;-68
2023/08/29 06:25:50;;;;;;;2.45;2.00;;;;;;;;;;5025871;28;20435;-68
2023/08/29 06:28:17;;;;;;;2.60;2.00;;;;;;;;;;5025232;28;20462;-67
2023/08/29 06:30:44;;;;;;;3.95;1.98;;;;;;;;;;5024064;28;20462;-67
2023/08/29 06:33:11;;;;;;;3.78;2.00;;;;;;;;;;5023866;28;20518;-67
2023/08/29 06:35:40;;;;;;;2.35;1.92;;;;;;;;;;5024797;28;20488;-67
2023/08/29 06:38:08;;;;;;;2.92;2.08;;;;;;;;;;5023772;28;20431;-68
2023/08/29 06:40:39;;;;;;;3.08;2.00;;;;;;;;;;5023794;28;20917;-67
2023/08/29 06:43:08;;;;;;;3.97;2.30;;;;;;;;;;4997159;28;20493;-68
2023/08/29 06:45:35;;;;;;;2.30;2.10;;;;;;;;;;5019747;28;20442;-67
2023/08/29 06:48:03;;;;;;;2.13;1.98;;;;;;;;;;5026210;28;20882;-67
2023/08/29 06:50:33;;;;;;;6.72;1.95;;;;;;;;;;5023187;28;20522;-67
2023/08/29 06:53:03;;;;;;;3.65;2.15;;;;;;;;;;5031087;28;20549;-67
2023/08/29 06:55:32;;;;;;;3.63;1.90;;;;;;;;;;5023055;28;20430;-67
2023/08/29 06:57:59;;;;;;;2.92;1.85;;;;;;;;;;5023780;28;20534;-68
2023/08/29 07:00:27;;;;;;;2.22;1.80;;;;;;;;;;5025079;28;20427;-68
2023/08/29 07:02:55;;;;;;;2.40;2.20;;;;;;;;;;5025518;28;20539;-67
2023/08/29 07:05:26;;;;;;;2.75;1.60;;;;;;;;;;5023012;28;20458;-68
2023/08/29 07:07:55;;;;;;;1.80;1.70;;;;;;;;;;5044484;28;20580;-68
2023/08/29 07:10:25;;;;;;;2.95;1.60;;;;;;;;;;5003772;28;20517;-67
2023/08/29 07:12:53;;;;;;;3.35;1.65;;;;;;;;;;5022758;28;20802;-67
2023/08/29 07:15:20;;;;;;;2.38;2.10;;;;;;;;;;5022361;28;20462;-67
2023/08/29 07:17:50;;;;;;;2.05;1.80;;;;;;;;;;5023594;28;20441;-67
2023/08/29 07:20:17;;;;;;;2.33;1.80;;;;;;;;;;5021724;28;20461;-67
2023/08/29 07:22:44;;;;;;;2.10;1.90;;;;;;;;;;5021144;28;20439;-67
2023/08/29 07:25:12;;;;;;;2.60;2.38;;;;;;;;;;5016342;28;20522;-67
2023/08/29 07:27:39;;;;;;;1.60;1.50;;;;;;;;;;5023537;28;20534;-67
2023/08/29 07:30:07;;;;;;;1.53;1.43;;;;;;;;;;5021620;28;20909;-67
2023/08/29 07:32:37;;;;;;;2.03;1.92;;;;;;;;;;5027938;28;20465;-67
2023/08/29 07:35:04;;;;;;;3.30;2.20;;;;;;;;;;5021837;28;20439;-67
2023/08/29 07:37:34;;;;;;;2.25;2.05;;;;;;;;;;5022371;28;20468;-67
2023/08/29 07:40:05;;;;;;;3.50;2.03;;;;;;;;;;5028553;28;21149;-67
2023/08/29 07:42:32;;;;;;;4.25;2.42;;;;;;;;;;5019109;28;20438;-68
2023/08/29 07:45:02;;;;;;;4.38;1.77;;;;;;;;;;5027442;28;20504;-67
2023/08/29 07:47:30;;;;;;;2.28;2.08;;;;;;;;;;5030361;28;20510;-67
2023/08/29 07:49:57;;;;;;;3.88;2.05;;;;;;;;;;5036603;28;20429;-67
2023/08/29 07:52:24;;;;;;;2.20;2.10;;;;;;;;;;5032376;28;20433;-68
2023/08/29 07:54:51;;;;;;;3.33;2.30;;;;;;;;;;5025909;28;20633;-59
2023/08/29 07:57:18;;;;;;;6.80;1.92;;;;;;;;;;5023225;28;20430;-60
2023/08/29 07:59:45;;;;;;;2.10;1.90;;;;;;;;;;5023568;28;20523;-60
2023/08/29 08:02:12;;;;;;;2.20;1.80;;;;;;;;;;5026725;28;20431;-60
2023/08/29 08:04:39;;;;;;;2.28;2.00;;;;;;;;;;5040503;28;20449;-61
2023/08/29 08:07:06;;;;;;;1.70;1.60;;;;;;;;;;5023241;28;20856;-60
2023/08/29 08:09:34;;;;;;;2.28;2.08;;;;;;;;;;5026085;28;20601;-60
2023/08/29 08:12:02;;;;;;;2.40;2.05;;;;;;;;;;5029412;28;20429;-61
2023/08/29 08:14:29;;;;;;;2.10;1.90;;;;;;;;;;5031883;28;20430;-60
2023/08/29 08:16:56;;;;;;;2.42;1.80;;;;;;;;;;5027304;28;20830;-60
2023/08/29 08:19:24;;;;;;;3.05;1.70;;;;;;;;;;5026205;28;20466;-60
2023/08/29 08:21:51;;;;;;;1.70;1.60;;;;;;;;;;5029100;28;20518;-59
2023/08/29 08:24:24;;;;;;;2.38;1.90;;;;;;;;;;5029725;28;20514;-58
2023/08/29 08:26:51;;;;;;;2.47;1.50;;;;;;;;;;5026045;28;20436;-59
2023/08/29 08:29:18;;;;;;;2.15;1.75;;;;;;;;;;5026255;28;20433;-63
2023/08/29 08:31:46;;;;;;;2.15;1.85;;;;;;;;;;5024838;28;20500;-60
2023/08/29 08:34:13;;;;;;;1.83;1.73;;;;;;;;;;5027786;28;20458;-60
2023/08/29 08:36:40;;;;;;;1.55;1.45;;;;;;;;;;5039406;28;20446;-60
2023/08/29 08:39:07;;;;;;;1.95;1.85;;;;;;;;;;5032938;28;20429;-60
2023/08/29 08:41:35;;;;;;;3.08;1.52;;;;;;;;;;5030176;28;20435;-60
2023/08/29 08:44:04;;;;;;;1.33;1.23;;;;;;;;;;5018671;28;20433;-60
2023/08/29 08:46:34;;;;;;;2.55;1.92;;;;;;;;;;5023091;28;20435;-60
2023/08/29 08:49:02;;;;;;;1.90;1.65;;;;;;;;;;5032603;28;20462;-59
2023/08/29 08:51:30;;;;;;;1.70;1.40;;;;;;;;;;5030622;28;20489;-60
2023/08/29 08:53:58;;;;;;;1.45;1.40;;;;;;;;;;5023091;28;20505;-60
2023/08/29 08:56:28;;;;;;;1.73;1.50;;;;;;;;;;5001843;28;20527;-60
2023/08/29 08:58:55;;;;;;;1.53;1.30;;;;;;;;;;5040369;28;20991;-59
2023/08/29 09:01:22;;;;;;;2.88;1.20;;;;;;;;;;5026484;28;20466;-60
2023/08/29 09:03:50;;;;;;;2.83;1.33;;;;;;;;;;5040291;28;20442;-60
2023/08/29 09:06:17;;;;;;;1.27;1.17;;;;;;;;;;5041132;28;20901;-60
2023/08/29 09:08:45;;;;;;;3.67;1.15;;;;;;;;;;5026164;28;20825;-60
2023/08/29 09:11:12;;;;;;;2.60;1.07;;;;;;;;;;5030687;28;20428;-60
2023/08/29 09:13:48;;;;;;;0.93;0.90;;;;;;;;;;5033303;28;20434;-61
2023/08/29 09:16:21;;;;;;;1.42;1.05;;;;;;;;;;5025612;28;20573;-60
2023/08/29 09:18:51;;;;;;;0.95;0.90;;;;;;;;;;5023782;28;20442;-60
2023/08/29 09:21:22;;;;;;;1.00;1.00;;;;;;;;;;5025790;28;20434;-60
2023/08/29 09:23:52;;;;;;;1.48;1.08;;;;;;;;;;5026437;28;20901;-60
2023/08/29 09:26:19;;;;;;;1.73;0.90;;;;;;;;;;5025877;28;20526;-60
2023/08/29 09:28:49;;;;;;;1.33;1.02;;;;;;;;;;5027142;28;20506;-60
2023/08/29 09:31:16;;;;;;;1.30;1.20;;;;;;;;;;5027258;28;20893;-60
2023/08/29 09:33:44;;;;;;;1.10;1.00;;;;;;;;;;5026269;28;20445;-61
2023/08/29 09:36:11;;;;;;;1.20;1.10;;;;;;;;;;5026796;28;21325;-61
2023/08/29 09:38:44;;;;;;;1.90;1.00;;;;;;;;;;5030849;28;20435;-61
2023/08/29 09:41:14;;;;;;;0.82;0.82;;;;;;;;;;5028797;28;20509;-60
2023/08/29 09:43:48;;;;;;;1.63;1.00;;;;;;;;;;5024401;28;20440;-60
2023/08/29 09:46:24;;;;;;;1.33;1.10;;;;;;;;;;5024381;28;20898;-60
2023/08/29 09:48:56;;;;;;;0.80;0.77;;;;;;;;;;5026031;28;20441;-65
2023/08/29 09:51:27;;;;;;;1.10;1.10;;;;;;;;;;5024281;28;20422;-61
2023/08/29 09:53:57;;;;;;;1.08;1.00;;;;;;;;;;5020146;28;20871;-62
2023/08/29 09:56:25;;;;;;;2.10;1.02;;;;;;;;;;5024245;28;20820;-61
2023/08/29 09:58:54;;;;;;;1.37;0.77;;;;;;;;;;5035538;28;20470;-60
2023/08/29 10:01:21;;;;;;;1.10;0.90;;;;;;;;;;5024670;28;21531;-61
2023/08/29 10:03:49;;;;;;;1.25;1.00;;;;;;;;;;5023159;28;20576;-58
2023/08/29 10:06:18;;;;;;;1.00;0.90;;;;;;;;;;5028120;28;20760;-59
2023/08/29 10:08:46;;;;;;;1.17;0.93;;;;;;;;;;5024518;28;21146;-58
2023/08/29 10:11:17;;;;;;;1.08;0.90;;;;;;;;;;5017931;28;20431;-58
2023/08/29 10:13:45;;;;;;;2.00;1.10;;;;;;;;;;5023160;28;20470;-59
2023/08/29 10:16:13;;;;;;;0.90;0.90;;;;;;;;;;5040874;28;21132;-57
2023/08/29 10:18:41;;;;;;;1.73;1.08;;;;;;;;;;5024698;28;20431;-58
2023/08/29 10:21:11;;;;;;;1.40;1.15;;;;;;;;;;5028819;28;20929;-59
2023/08/29 10:23:41;;;;;;;1.67;1.20;;;;;;;;;;5022521;28;20431;-59
2023/08/29 10:26:09;;;;;;;1.88;1.27;;;;;;;;;;5025391;28;20463;-59
2023/08/29 10:28:37;;;;;;;1.23;0.90;;;;;;;;;;5024551;28;20434;-59
2023/08/29 10:31:05;;;;;;;1.80;1.10;;;;;;;;;;5030600;28;20433;-58
2023/08/29 10:33:36;;;;;;;1.45;1.00;;;;;;;;;;5029133;28;20458;-58
2023/08/29 10:36:03;;;;;;;1.08;1.05;;;;;;;;;;5020340;28;20475;-59
2023/08/29 10:38:31;;;;;;;2.70;1.02;;;;;;;;;;5022494;28;20439;-59
2023/08/29 10:41:09;;;;;;;1.00;0.90;;;;;;;;;;5025391;28;20498;-59
2023/08/29 10:43:37;;;;;;;4.03;1.10;;;;;;;;;;5026859;28;20500;-59
2023/08/29 10:46:10;;;;;;;1.33;1.15;;;;;;;;;;5027466;28;20427;-59
2023/08/29 10:48:38;;;;;;;0.90;0.90;;;;;;;;;;5024901;28;20434;-59
2023/08/29 10:51:08;;;;;;;1.58;1.10;;;;;;;;;;5023286;28;20466;-59
2023/08/29 10:53:37;;;;;;;1.15;0.80;;;;;;;;;;5035301;28;20452;-58
2023/08/29 10:56:08;;;;;;;2.33;1.08;;;;;;;;;;5034377;28;20501;-59
2023/08/29 10:58:37;;;;;;;0.88;0.80;;;;;;;;;;5028831;28;20855;-58
2023/08/29 11:01:04;;;;;;;1.10;0.93;;;;;;;;;;5047846;28;20429;-59
2023/08/29 11:03:38;;;;;;;2.20;1.23;;;;;;;;;;5040314;28;20967;-59
2023/08/29 11:06:05;;;;;;;1.02;1.00;;;;;;;;;;5027584;28;20431;-58
2023/08/29 11:08:32;;;;;;;1.33;1.23;;;;;;;;;;5027384;28;20427;-58
2023/08/29 11:11:15;;;;;;;1.63;1.20;;;;;;;;;;5034280;28;20494;-58
2023/08/29 11:14:02;;;;;;;1.70;1.10;;;;;;;;;;5053746;28;20426;-58
2023/08/29 11:16:35;;;;;;;2.30;1.20;;;;;;;;;;5041261;28;20919;-57
2023/08/29 11:19:12;;;;;;;3.10;1.08;;;;;;;;;;4997090;28;20470;-58
2023/08/29 11:21:40;;;;;;;2.00;1.08;;;;;;;;;;5044532;28;20439;-57
2023/08/29 11:24:11;;;;;;;1.70;1.13;;;;;;;;;;5046801;28;20427;-57
2023/08/29 11:26:47;;;;;;;1.60;0.95;;;;;;;;;;5040982;28;21002;-57
2023/08/29 11:29:14;;;;;;;3.00;1.00;;;;;;;;;;5043009;28;20429;-57
2023/08/29 11:31:45;;;;;;;2.20;0.90;;;;;;;;;;5034231;28;20433;-57
2023/08/29 11:34:13;;;;;;;2.25;0.80;;;;;;;;;;5006888;28;20970;-57
2023/08/29 11:36:42;;;;;;;2.60;0.80;;;;;;;;;;5026969;28;20495;-57
2023/08/29 11:39:09;;;;;;;1.70;0.70;;;;;;;;;;5031942;28;20477;-60
2023/08/29 11:41:37;;;;;;;1.95;0.70;;;;;;;;;;5021050;28;20553;-62
2023/08/29 11:44:27;;;;;;;1.40;1.00;;;;;;;;;;5028515;28;20435;-63
2023/08/29 11:47:15;;;;;;;0.75;0.75;;;;;;;;;;5034083;28;20430;-62
2023/08/29 11:49:42;;;;;;;2.30;1.00;;;;;;;;;;5023793;28;20439;-63
2023/08/29 11:52:10;;;;;;;0.80;0.80;;;;;;;;;;5027307;28;21303;-63
2023/08/29 11:54:48;;;;;;;2.35;0.90;;;;;;;;;;5026107;28;20539;-63
2023/08/29 11:57:16;;;;;;;2.10;1.00;;;;;;;;;;5019156;28;20433;-63
2023/08/29 11:59:43;;;;;;;0.98;0.90;;;;;;;;;;5020203;28;20439;-64
2023/08/29 12:02:11;;;;;;;1.20;0.90;;;;;;;;;;5026054;28;20427;-63
2023/08/29 12:04:39;;;;;;;1.48;1.00;;;;;;;;;;5024019;28;20435;-63
2023/08/29 12:07:17;;;;;;;3.05;1.13;;;;;;;;;;5026118;28;20848;-62
2023/08/29 12:09:47;;;;;;;1.63;1.10;;;;;;;;;;5020622;28;20438;-62
2023/08/29 12:12:28;;;;;;;1.20;1.10;;;;;;;;;;5023014;28;20451;-63
2023/08/29 12:14:55;;;;;;;1.13;1.02;;;;;;;;;;5025966;28;20493;-64
2023/08/29 12:17:32;;;;;;;1.60;0.93;;;;;;;;;;5024975;28;20463;-63
2023/08/29 12:20:00;;;;;;;0.70;0.70;;;;;;;;;;5034655;28;20445;-63
2023/08/29 12:22:30;;;;;;;0.80;0.80;;;;;;;;;;5006529;28;20554;-63
2023/08/29 12:25:01;;;;;;;1.90;1.08;;;;;;;;;;5028482;28;20514;-63
2023/08/29 12:27:28;;;;;;;0.93;0.93;;;;;;;;;;5023987;28;20435;-63
2023/08/29 12:29:55;;;;;;;1.10;1.00;;;;;;;;;;5029579;28;20545;-63
2023/08/29 12:32:26;;;;;;;1.00;0.90;;;;;;;;;;5037458;28;20915;-62
2023/08/29 12:34:55;;;;;;;0.70;0.70;;;;;;;;;;5016056;28;20430;-62
2023/08/29 12:37:22;;;;;;;1.20;1.10;;;;;;;;;;5016282;28;20450;-62
2023/08/29 12:39:49;;;;;;;0.90;0.90;;;;;;;;;;5041324;28;20490;-62
2023/08/29 12:42:19;;;;;;;1.15;0.90;;;;;;;;;;5023492;28;20428;-62
2023/08/29 12:44:46;;;;;;;1.60;0.70;;;;;;;;;;5024073;28;20443;-63
2023/08/29 12:47:13;;;;;;;0.80;0.80;;;;;;;;;;5031752;28;20435;-64
2023/08/29 12:49:41;;;;;;;1.70;1.00;;;;;;;;;;5029275;28;20453;-64
2023/08/29 12:52:08;;;;;;;2.63;0.90;;;;;;;;;;5023058;28;20933;-63
2023/08/29 12:54:36;;;;;;;2.13;1.08;;;;;;;;;;5019786;28;20560;-63
2023/08/29 12:57:04;;;;;;;2.17;1.30;;;;;;;;;;5018807;28;20471;-63
2023/08/29 12:59:32;;;;;;;2.95;1.45;;;;;;;;;;5018426;28;20465;-63
2023/08/29 13:01:59;;;;;;;1.65;1.50;;;;;;;;;;5020347;28;20438;-62
2023/08/29 13:04:26;;;;;;;1.25;1.25;;;;;;;;;;5027627;28;20435;-63
2023/08/29 13:06:53;;;;;;;1.48;1.38;;;;;;;;;;5020999;28;21090;-63
2023/08/29 13:09:21;;;;;;;4.30;1.50;;;;;;;;;;5036403;28;20882;-63
2023/08/29 13:12:03;;;;;;;1.90;1.23;;;;;;;;;;5018682;28;20437;-63
2023/08/29 13:14:31;;;;;;;2.20;1.33;;;;;;;;;;5024353;28;20526;-68
2023/08/29 13:17:05;;;;;;;1.67;1.50;;;;;;;;;;5019868;28;20431;-67
2023/08/29 13:19:33;;;;;;;2.47;1.30;;;;;;;;;;5021388;28;20432;-67
2023/08/29 13:22:03;;;;;;;1.85;1.13;;;;;;;;;;5020672;28;21002;-66
2023/08/29 13:24:31;;;;;;;1.55;1.23;;;;;;;;;;5035142;28;20772;-66
2023/08/29 13:27:04;;;;;;;1.70;1.10;;;;;;;;;;5023171;28;20577;-66
2023/08/29 13:29:31;;;;;;;1.50;1.40;;;;;;;;;;5022172;28;20502;-67
2023/08/29 13:31:58;;;;;;;1.55;1.10;;;;;;;;;;5022311;28;20443;-66
2023/08/29 13:34:26;;;;;;;1.80;1.33;;;;;;;;;;5037042;28;20428;-66
2023/08/29 13:36:53;;;;;;;1.85;1.58;;;;;;;;;;5029134;28;20443;-66
2023/08/29 13:39:20;;;;;;;1.70;1.50;;;;;;;;;;5025066;28;20432;-66
2023/08/29 13:41:48;;;;;;;1.45;1.25;;;;;;;;;;5032996;28;20430;-66
2023/08/29 13:44:15;;;;;;;2.25;1.60;;;;;;;;;;5040637;28;20765;-66
2023/08/29 13:46:45;;;;;;;1.40;1.30;;;;;;;;;;5039587;28;20429;-66
2023/08/29 13:49:15;;;;;;;2.17;1.30;;;;;;;;;;5026140;28;20431;-67
2023/08/29 13:51:43;;;;;;;1.90;1.50;;;;;;;;;;5035357;28;20508;-67
2023/08/29 13:54:10;;;;;;;2.05;1.50;;;;;;;;;;5031814;28;20970;-66
2023/08/29 13:56:43;;;;;;;2.70;1.27;;;;;;;;;;5048228;28;20522;-67
2023/08/29 13:59:10;;;;;;;2.40;1.40;;;;;;;;;;5029400;28;20446;-66
2023/08/29 14:01:37;;;;;;;2.75;1.30;;;;;;;;;;5037416;28;20441;-66
2023/08/29 14:04:07;;;;;;;1.20;1.10;;;;;;;;;;5036051;28;20912;-67
2023/08/29 14:06:34;;;;;;;1.30;1.30;;;;;;;;;;5028686;28;20490;-67
2023/08/29 14:09:01;;;;;;;2.08;1.70;;;;;;;;;;5046628;28;20425;-67
2023/08/29 14:11:29;;;;;;;1.50;1.40;;;;;;;;;;5049536;28;20435;-67
2023/08/29 14:13:56;;;;;;;1.20;1.10;;;;;;;;;;5035707;28;20795;-66
2023/08/29 14:16:28;;;;;;;2.20;1.50;;;;;;;;;;5016825;28;20461;-66
2023/08/29 14:18:58;;;;;;;1.73;1.50;;;;;;;;;;5025013;28;20446;-66
2023/08/29 14:21:25;;;;;;;4.70;1.20;;;;;;;;;;5043230;28;20460;-66
2023/08/29 14:23:52;;;;;;;1.33;1.23;;;;;;;;;;5024062;28;20471;-66
2023/08/29 14:26:19;;;;;;;1.90;1.10;;;;;;;;;;5030010;28;20433;-66
2023/08/29 14:28:47;;;;;;;1.60;1.40;;;;;;;;;;5030931;28;20438;-65
2023/08/29 14:31:24;;;;;;;1.45;1.45;;;;;;;;;;5033197;28;20436;-64
2023/08/29 14:33:52;;;;;;;2.22;1.48;;;;;;;;;;5051615;28;20785;-65
2023/08/29 14:36:19;;;;;;;2.77;1.50;;;;;;;;;;5028701;28;20439;-66
2023/08/29 14:38:50;;;;;;;1.60;1.50;;;;;;;;;;5030888;28;20919;-66
2023/08/29 14:41:17;;;;;;;2.80;1.98;;;;;;;;;;5024228;28;20431;-66
2023/08/29 14:43:44;;;;;;;2.08;1.83;;;;;;;;;;5027807;28;20446;-66
2023/08/29 14:46:14;;;;;;;1.63;1.52;;;;;;;;;;5035978;28;20435;-66
2023/08/29 14:48:42;;;;;;;1.90;1.50;;;;;;;;;;5045543;28;20421;-66
2023/08/29 14:51:09;;;;;;;1.90;1.80;;;;;;;;;;5029963;28;20530;-66
2023/08/29 14:53:40;;;;;;;1.77;1.50;;;;;;;;;;5031952;28;20493;-66